sensor_id;sensor_type;location;lat;lon;timestamp;temperature;humidity
12384;DHT22;6256;63.808;20.336;2024-03-06T00:02:05;0.80;99.90
12384;DHT22;6256;63.808;20.336;2024-03-06T00:04:54;0.80;99.90
12384;DHT22;6256;63.808;20.336;2024-03-06T00:07:20;0.80;99.90
12384;DHT22;6256;63.808;20.336;2024-03-06T00:09:45;0.80;99.90
12384;DHT22;6256;63.808;20.336;2024-03-06T00:12:11;0.70;99.90
12384;DHT22;6256;63.808;20.336;2024-03-06T00:14:37;0.70;99.90
12384;DHT22;6256;63.808;20.336;2024-03-06T00:17:03;0.70;99.90
12384;DHT22;6256;63.808;20.336;2024-03-06T00:19:32;0.70;99.90
12384;DHT22;6256;63.808;20.336;2024-03-06T00:21:59;0.70;99.90
12384;DHT22;6256;63.808;20.336;2024-03-06T00:24:25;0.60;99.90
12384;DHT22;6256;63.808;20.336;2024-03-06T00:26:50;0.60;99.90
12384;DHT22;6256;63.808;20.336;2024-03-06T00:29:16;0.70;99.90
12384;DHT22;6256;63.808;20.336;2024-03-06T00:31:43;0.60;99.90
12384;DHT22;6256;63.808;20.336;2024-03-06T00:34:12;0.60;99.90
12384;DHT22;6256;63.808;20.336;2024-03-06T00:36:43;0.70;99.90
12384;DHT22;6256;63.808;20.336;2024-03-06T00:39:12;0.70;99.90
12384;DHT22;6256;63.808;20.336;2024-03-06T00:41:40;0.70;99.90
12384;DHT22;6256;63.808;20.336;2024-03-06T00:44:06;0.70;99.90
12384;DHT22;6256;63.808;20.336;2024-03-06T00:46:32;0.60;99.90
12384;DHT22;6256;63.808;20.336;2024-03-06T00:48:57;0.60;99.90
12384;DHT22;6256;63.808;20.336;2024-03-06T00:51:23;0.60;99.90
12384;DHT22;6256;63.808;20.336;2024-03-06T00:53:49;0.60;99.90
12384;DHT22;6256;63.808;20.336;2024-03-06T00:56:15;0.60;99.90
12384;DHT22;6256;63.808;20.336;2024-03-06T00:58:40;0.60;99.90
12384;DHT22;6256;63.808;20.336;2024-03-06T01:01:06;0.70;99.90
12384;DHT22;6256;63.808;20.336;2024-03-06T01:03:32;0.50;99.90
12384;DHT22;6256;63.808;20.336;2024-03-06T01:05:57;0.50;99.90
12384;DHT22;6256;63.808;20.336;2024-03-06T01:08:23;0.50;99.90
12384;DHT22;6256;63.808;20.336;2024-03-06T01:10:51;0.50;99.90
12384;DHT22;6256;63.808;20.336;2024-03-06T01:13:18;0.60;99.90
12384;DHT22;6256;63.808;20.336;2024-03-06T01:15:44;0.60;99.90
12384;DHT22;6256;63.808;20.336;2024-03-06T01:18:09;0.50;99.90
12384;DHT22;6256;63.808;20.336;2024-03-06T01:20:35;0.40;99.90
12384;DHT22;6256;63.808;20.336;2024-03-06T01:23:01;0.40;99.90
12384;DHT22;6256;63.808;20.336;2024-03-06T01:25:27;0.40;99.90
12384;DHT22;6256;63.808;20.336;2024-03-06T01:27:53;0.40;99.90
12384;DHT22;6256;63.808;20.336;2024-03-06T01:30:18;0.30;99.90
12384;DHT22;6256;63.808;20.336;2024-03-06T01:32:44;0.40;99.90
12384;DHT22;6256;63.808;20.336;2024-03-06T01:35:10;0.30;99.90
12384;DHT22;6256;63.808;20.336;2024-03-06T01:37:36;0.40;99.90
12384;DHT22;6256;63.808;20.336;2024-03-06T01:40:01;0.40;99.90
12384;DHT22;6256;63.808;20.336;2024-03-06T01:42:30;0.40;99.90
12384;DHT22;6256;63.808;20.336;2024-03-06T01:44:55;0.30;99.90
12384;DHT22;6256;63.808;20.336;2024-03-06T01:47:21;0.30;99.90
12384;DHT22;6256;63.808;20.336;2024-03-06T01:49:47;0.10;99.90
12384;DHT22;6256;63.808;20.336;2024-03-06T01:52:14;0.10;99.90
12384;DHT22;6256;63.808;20.336;2024-03-06T01:54:42;0.10;99.90
12384;DHT22;6256;63.808;20.336;2024-03-06T01:57:08;0.10;99.90
12384;DHT22;6256;63.808;20.336;2024-03-06T01:59:35;0.10;99.90
12384;DHT22;6256;63.808;20.336;2024-03-06T02:02:02;0.20;99.90
12384;DHT22;6256;63.808;20.336;2024-03-06T02:04:29;0.20;99.90
12384;DHT22;6256;63.808;20.336;2024-03-06T02:06:56;0.20;99.90
12384;DHT22;6256;63.808;20.336;2024-03-06T02:09:23;0.20;99.90
12384;DHT22;6256;63.808;20.336;2024-03-06T02:11:49;0.30;99.90
12384;DHT22;6256;63.808;20.336;2024-03-06T02:14:16;0.30;99.90
12384;DHT22;6256;63.808;20.336;2024-03-06T02:16:42;0.30;99.90
12384;DHT22;6256;63.808;20.336;2024-03-06T02:19:08;0.30;99.90
12384;DHT22;6256;63.808;20.336;2024-03-06T02:21:34;0.30;99.90
12384;DHT22;6256;63.808;20.336;2024-03-06T02:24:00;0.30;99.90
12384;DHT22;6256;63.808;20.336;2024-03-06T02:26:26;0.30;99.90
12384;DHT22;6256;63.808;20.336;2024-03-06T02:28:53;0.30;99.90
12384;DHT22;6256;63.808;20.336;2024-03-06T02:31:20;0.20;99.90
12384;DHT22;6256;63.808;20.336;2024-03-06T02:33:47;0.20;99.90
12384;DHT22;6256;63.808;20.336;2024-03-06T02:36:16;0.30;99.90
12384;DHT22;6256;63.808;20.336;2024-03-06T02:38:43;0.30;99.90
12384;DHT22;6256;63.808;20.336;2024-03-06T02:41:09;0.30;99.90
12384;DHT22;6256;63.808;20.336;2024-03-06T02:43:36;0.30;99.90
12384;DHT22;6256;63.808;20.336;2024-03-06T02:46:02;0.30;99.90
12384;DHT22;6256;63.808;20.336;2024-03-06T02:48:28;0.30;99.90
12384;DHT22;6256;63.808;20.336;2024-03-06T02:50:55;0.20;99.90
12384;DHT22;6256;63.808;20.336;2024-03-06T02:53:21;0.20;99.90
12384;DHT22;6256;63.808;20.336;2024-03-06T02:55:47;0.20;99.90
12384;DHT22;6256;63.808;20.336;2024-03-06T02:58:13;0.20;99.90
12384;DHT22;6256;63.808;20.336;2024-03-06T03:00:42;0.20;99.90
12384;DHT22;6256;63.808;20.336;2024-03-06T03:03:08;0.20;99.90
12384;DHT22;6256;63.808;20.336;2024-03-06T03:05:34;0.20;99.90
12384;DHT22;6256;63.808;20.336;2024-03-06T03:08:00;0.30;99.90
12384;DHT22;6256;63.808;20.336;2024-03-06T03:10:25;0.20;99.90
12384;DHT22;6256;63.808;20.336;2024-03-06T03:12:52;0.20;99.90
12384;DHT22;6256;63.808;20.336;2024-03-06T03:15:18;0.20;99.90
12384;DHT22;6256;63.808;20.336;2024-03-06T03:17:44;0.20;99.90
12384;DHT22;6256;63.808;20.336;2024-03-06T03:20:10;0.20;99.90
12384;DHT22;6256;63.808;20.336;2024-03-06T03:22:37;0.20;99.90
12384;DHT22;6256;63.808;20.336;2024-03-06T03:25:06;0.20;99.90
12384;DHT22;6256;63.808;20.336;2024-03-06T03:27:33;0.10;99.90
12384;DHT22;6256;63.808;20.336;2024-03-06T03:29:58;0.10;99.90
12384;DHT22;6256;63.808;20.336;2024-03-06T03:32:24;0.10;99.90
12384;DHT22;6256;63.808;20.336;2024-03-06T03:34:50;0.10;99.90
12384;DHT22;6256;63.808;20.336;2024-03-06T03:37:16;0.00;99.90
12384;DHT22;6256;63.808;20.336;2024-03-06T03:39:44;0.10;99.90
12384;DHT22;6256;63.808;20.336;2024-03-06T03:42:10;-0.10;99.90
12384;DHT22;6256;63.808;20.336;2024-03-06T03:44:36;-0.10;99.90
12384;DHT22;6256;63.808;20.336;2024-03-06T03:47:01;-0.10;99.90
12384;DHT22;6256;63.808;20.336;2024-03-06T03:49:27;-0.10;99.90
12384;DHT22;6256;63.808;20.336;2024-03-06T03:51:53;-0.10;99.90
12384;DHT22;6256;63.808;20.336;2024-03-06T03:54:19;-0.10;99.90
12384;DHT22;6256;63.808;20.336;2024-03-06T03:56:44;-0.10;99.90
12384;DHT22;6256;63.808;20.336;2024-03-06T03:59:10;0.00;99.90
12384;DHT22;6256;63.808;20.336;2024-03-06T04:01:36;-0.10;99.90
12384;DHT22;6256;63.808;20.336;2024-03-06T04:04:01;-0.10;99.90
12384;DHT22;6256;63.808;20.336;2024-03-06T04:06:27;-0.10;99.90
12384;DHT22;6256;63.808;20.336;2024-03-06T04:08:53;-0.10;99.90
12384;DHT22;6256;63.808;20.336;2024-03-06T04:11:19;0.00;99.90
12384;DHT22;6256;63.808;20.336;2024-03-06T04:13:44;-0.10;99.90
12384;DHT22;6256;63.808;20.336;2024-03-06T04:16:18;0.00;99.90
12384;DHT22;6256;63.808;20.336;2024-03-06T04:18:44;-0.10;99.90
12384;DHT22;6256;63.808;20.336;2024-03-06T04:21:11;-0.10;99.90
12384;DHT22;6256;63.808;20.336;2024-03-06T04:23:37;0.00;99.90
12384;DHT22;6256;63.808;20.336;2024-03-06T04:26:03;0.00;99.90
12384;DHT22;6256;63.808;20.336;2024-03-06T04:28:29;0.00;99.90
12384;DHT22;6256;63.808;20.336;2024-03-06T04:30:55;0.00;99.90
12384;DHT22;6256;63.808;20.336;2024-03-06T04:33:21;0.00;99.90
12384;DHT22;6256;63.808;20.336;2024-03-06T04:35:47;0.00;99.90
12384;DHT22;6256;63.808;20.336;2024-03-06T04:38:13;0.00;99.90
12384;DHT22;6256;63.808;20.336;2024-03-06T04:40:39;0.00;99.90
12384;DHT22;6256;63.808;20.336;2024-03-06T04:43:05;0.10;99.90
12384;DHT22;6256;63.808;20.336;2024-03-06T04:45:32;0.00;99.90
12384;DHT22;6256;63.808;20.336;2024-03-06T04:47:57;0.00;99.90
12384;DHT22;6256;63.808;20.336;2024-03-06T04:50:24;-0.10;99.90
12384;DHT22;6256;63.808;20.336;2024-03-06T04:52:49;-0.20;99.90
12384;DHT22;6256;63.808;20.336;2024-03-06T04:55:15;-0.10;99.90
12384;DHT22;6256;63.808;20.336;2024-03-06T04:57:45;-0.10;99.90
12384;DHT22;6256;63.808;20.336;2024-03-06T05:00:12;-0.10;99.90
12384;DHT22;6256;63.808;20.336;2024-03-06T05:02:38;-0.10;99.90
12384;DHT22;6256;63.808;20.336;2024-03-06T05:05:04;-0.10;99.90
12384;DHT22;6256;63.808;20.336;2024-03-06T05:07:30;-0.10;99.90
12384;DHT22;6256;63.808;20.336;2024-03-06T05:09:57;-0.10;99.90
12384;DHT22;6256;63.808;20.336;2024-03-06T05:12:24;-0.20;99.90
12384;DHT22;6256;63.808;20.336;2024-03-06T05:14:51;-0.30;99.90
12384;DHT22;6256;63.808;20.336;2024-03-06T05:17:17;-0.20;99.90
12384;DHT22;6256;63.808;20.336;2024-03-06T05:19:43;-0.20;99.90
12384;DHT22;6256;63.808;20.336;2024-03-06T05:22:10;-0.20;99.90
12384;DHT22;6256;63.808;20.336;2024-03-06T05:24:37;-0.20;99.90
12384;DHT22;6256;63.808;20.336;2024-03-06T05:27:03;-0.20;99.90
12384;DHT22;6256;63.808;20.336;2024-03-06T05:29:29;-0.10;99.90
12384;DHT22;6256;63.808;20.336;2024-03-06T05:31:55;-0.10;99.90
12384;DHT22;6256;63.808;20.336;2024-03-06T05:34:22;-0.10;99.90
12384;DHT22;6256;63.808;20.336;2024-03-06T05:36:48;-0.20;99.90
12384;DHT22;6256;63.808;20.336;2024-03-06T05:39:13;-0.10;99.90
12384;DHT22;6256;63.808;20.336;2024-03-06T05:41:40;-0.10;99.90
12384;DHT22;6256;63.808;20.336;2024-03-06T05:44:06;-0.20;99.90
12384;DHT22;6256;63.808;20.336;2024-03-06T05:46:32;-0.20;99.90
12384;DHT22;6256;63.808;20.336;2024-03-06T05:48:58;-0.20;99.90
12384;DHT22;6256;63.808;20.336;2024-03-06T05:51:24;-0.20;99.90
12384;DHT22;6256;63.808;20.336;2024-03-06T05:53:49;-0.20;99.90
12384;DHT22;6256;63.808;20.336;2024-03-06T05:56:17;-0.30;99.90
12384;DHT22;6256;63.808;20.336;2024-03-06T05:58:44;-0.20;99.90
12384;DHT22;6256;63.808;20.336;2024-03-06T06:01:13;-0.30;99.90
12384;DHT22;6256;63.808;20.336;2024-03-06T06:03:41;-0.20;99.90
12384;DHT22;6256;63.808;20.336;2024-03-06T06:06:07;-0.20;99.90
12384;DHT22;6256;63.808;20.336;2024-03-06T06:08:34;-0.20;99.90
12384;DHT22;6256;63.808;20.336;2024-03-06T06:11:01;-0.20;99.90
12384;DHT22;6256;63.808;20.336;2024-03-06T06:13:28;-0.30;99.90
12384;DHT22;6256;63.808;20.336;2024-03-06T06:15:54;-0.30;99.90
12384;DHT22;6256;63.808;20.336;2024-03-06T06:18:20;-0.40;99.90
12384;DHT22;6256;63.808;20.336;2024-03-06T06:20:46;-0.30;99.90
12384;DHT22;6256;63.808;20.336;2024-03-06T06:23:12;-0.20;99.90
12384;DHT22;6256;63.808;20.336;2024-03-06T06:25:37;-0.20;99.90
12384;DHT22;6256;63.808;20.336;2024-03-06T06:28:03;-0.20;99.90
12384;DHT22;6256;63.808;20.336;2024-03-06T06:30:30;-0.20;99.90
12384;DHT22;6256;63.808;20.336;2024-03-06T06:32:56;-0.40;99.90
12384;DHT22;6256;63.808;20.336;2024-03-06T06:35:22;-0.40;99.90
12384;DHT22;6256;63.808;20.336;2024-03-06T06:37:48;-0.50;99.90
12384;DHT22;6256;63.808;20.336;2024-03-06T06:40:13;-0.50;99.90
12384;DHT22;6256;63.808;20.336;2024-03-06T06:42:44;-0.50;99.90
12384;DHT22;6256;63.808;20.336;2024-03-06T06:45:15;-0.40;99.90
12384;DHT22;6256;63.808;20.336;2024-03-06T06:47:41;-0.40;99.90
12384;DHT22;6256;63.808;20.336;2024-03-06T06:50:10;-0.30;99.90
12384;DHT22;6256;63.808;20.336;2024-03-06T06:52:40;-0.30;99.90
12384;DHT22;6256;63.808;20.336;2024-03-06T06:55:07;-0.30;99.90
12384;DHT22;6256;63.808;20.336;2024-03-06T06:57:35;-0.30;99.90
12384;DHT22;6256;63.808;20.336;2024-03-06T07:00:01;-0.40;99.90
12384;DHT22;6256;63.808;20.336;2024-03-06T07:02:37;-0.20;99.90
12384;DHT22;6256;63.808;20.336;2024-03-06T07:05:04;-0.30;99.90
12384;DHT22;6256;63.808;20.336;2024-03-06T07:07:30;-0.10;99.90
12384;DHT22;6256;63.808;20.336;2024-03-06T07:09:56;0.00;99.90
12384;DHT22;6256;63.808;20.336;2024-03-06T07:12:22;0.00;99.90
12384;DHT22;6256;63.808;20.336;2024-03-06T07:14:47;0.00;99.90
12384;DHT22;6256;63.808;20.336;2024-03-06T07:17:13;0.00;99.90
12384;DHT22;6256;63.808;20.336;2024-03-06T07:19:39;0.10;99.90
12384;DHT22;6256;63.808;20.336;2024-03-06T07:22:05;0.10;99.90
12384;DHT22;6256;63.808;20.336;2024-03-06T07:24:31;0.20;99.90
12384;DHT22;6256;63.808;20.336;2024-03-06T07:26:56;0.20;99.90
12384;DHT22;6256;63.808;20.336;2024-03-06T07:29:22;0.20;99.90
12384;DHT22;6256;63.808;20.336;2024-03-06T07:31:48;0.00;99.90
12384;DHT22;6256;63.808;20.336;2024-03-06T07:34:14;0.00;99.90
12384;DHT22;6256;63.808;20.336;2024-03-06T07:36:40;0.10;99.90
12384;DHT22;6256;63.808;20.336;2024-03-06T07:39:06;0.20;99.90
12384;DHT22;6256;63.808;20.336;2024-03-06T07:41:35;0.30;99.90
12384;DHT22;6256;63.808;20.336;2024-03-06T07:44:01;0.30;99.90
12384;DHT22;6256;63.808;20.336;2024-03-06T07:46:26;0.30;99.90
12384;DHT22;6256;63.808;20.336;2024-03-06T07:48:52;0.40;99.90
12384;DHT22;6256;63.808;20.336;2024-03-06T07:51:18;0.50;99.90
12384;DHT22;6256;63.808;20.336;2024-03-06T07:53:44;0.20;99.90
12384;DHT22;6256;63.808;20.336;2024-03-06T07:56:10;0.20;99.90
12384;DHT22;6256;63.808;20.336;2024-03-06T07:58:42;0.30;99.90
12384;DHT22;6256;63.808;20.336;2024-03-06T08:01:08;0.40;99.90
12384;DHT22;6256;63.808;20.336;2024-03-06T08:03:34;0.30;99.90
12384;DHT22;6256;63.808;20.336;2024-03-06T08:05:59;0.30;99.90
12384;DHT22;6256;63.808;20.336;2024-03-06T08:08:25;0.20;99.90
12384;DHT22;6256;63.808;20.336;2024-03-06T08:10:51;0.40;99.90
12384;DHT22;6256;63.808;20.336;2024-03-06T08:13:17;0.50;99.90
12384;DHT22;6256;63.808;20.336;2024-03-06T08:15:44;0.30;99.90
12384;DHT22;6256;63.808;20.336;2024-03-06T08:18:11;0.20;99.90
12384;DHT22;6256;63.808;20.336;2024-03-06T08:20:38;0.20;99.90
12384;DHT22;6256;63.808;20.336;2024-03-06T08:23:04;0.10;99.90
12384;DHT22;6256;63.808;20.336;2024-03-06T08:25:30;0.30;99.90
12384;DHT22;6256;63.808;20.336;2024-03-06T08:27:58;0.50;99.90
12384;DHT22;6256;63.808;20.336;2024-03-06T08:30:24;0.60;99.90
12384;DHT22;6256;63.808;20.336;2024-03-06T08:32:51;0.80;99.90
12384;DHT22;6256;63.808;20.336;2024-03-06T08:35:17;0.90;99.90
12384;DHT22;6256;63.808;20.336;2024-03-06T08:37:45;0.90;99.90
12384;DHT22;6256;63.808;20.336;2024-03-06T08:40:11;0.90;99.90
12384;DHT22;6256;63.808;20.336;2024-03-06T08:42:49;0.90;99.90
12384;DHT22;6256;63.808;20.336;2024-03-06T08:45:16;0.80;99.90
12384;DHT22;6256;63.808;20.336;2024-03-06T08:47:43;0.70;99.90
12384;DHT22;6256;63.808;20.336;2024-03-06T08:50:10;0.80;99.90
12384;DHT22;6256;63.808;20.336;2024-03-06T08:52:36;0.90;99.90
12384;DHT22;6256;63.808;20.336;2024-03-06T08:55:03;0.70;99.90
12384;DHT22;6256;63.808;20.336;2024-03-06T08:57:34;0.50;99.90
12384;DHT22;6256;63.808;20.336;2024-03-06T09:00:01;0.60;99.90
12384;DHT22;6256;63.808;20.336;2024-03-06T09:02:27;0.60;99.90
12384;DHT22;6256;63.808;20.336;2024-03-06T09:04:53;0.80;99.90
12384;DHT22;6256;63.808;20.336;2024-03-06T09:07:19;1.00;99.90
12384;DHT22;6256;63.808;20.336;2024-03-06T09:09:49;0.80;99.90
12384;DHT22;6256;63.808;20.336;2024-03-06T09:12:17;0.90;99.90
12384;DHT22;6256;63.808;20.336;2024-03-06T09:14:44;0.90;99.90
12384;DHT22;6256;63.808;20.336;2024-03-06T09:17:11;0.90;99.90
12384;DHT22;6256;63.808;20.336;2024-03-06T09:19:40;0.80;99.90
12384;DHT22;6256;63.808;20.336;2024-03-06T09:22:06;0.80;99.90
12384;DHT22;6256;63.808;20.336;2024-03-06T09:24:33;0.70;99.90
12384;DHT22;6256;63.808;20.336;2024-03-06T09:27:01;0.80;99.90
12384;DHT22;6256;63.808;20.336;2024-03-06T09:29:27;0.90;99.90
12384;DHT22;6256;63.808;20.336;2024-03-06T09:31:52;0.80;99.90
12384;DHT22;6256;63.808;20.336;2024-03-06T09:34:18;0.80;99.90
12384;DHT22;6256;63.808;20.336;2024-03-06T09:36:48;1.00;99.90
12384;DHT22;6256;63.808;20.336;2024-03-06T09:39:15;1.10;99.90
12384;DHT22;6256;63.808;20.336;2024-03-06T09:41:49;1.10;99.90
12384;DHT22;6256;63.808;20.336;2024-03-06T09:44:16;1.30;99.90
12384;DHT22;6256;63.808;20.336;2024-03-06T09:46:44;1.20;99.90
12384;DHT22;6256;63.808;20.336;2024-03-06T09:49:18;1.30;99.90
12384;DHT22;6256;63.808;20.336;2024-03-06T09:51:45;1.30;99.90
12384;DHT22;6256;63.808;20.336;2024-03-06T09:54:13;1.30;99.90
12384;DHT22;6256;63.808;20.336;2024-03-06T09:56:44;1.50;99.90
12384;DHT22;6256;63.808;20.336;2024-03-06T09:59:11;1.70;99.90
12384;DHT22;6256;63.808;20.336;2024-03-06T10:01:47;1.70;99.90
12384;DHT22;6256;63.808;20.336;2024-03-06T10:06:46;1.50;99.90
12384;DHT22;6256;63.808;20.336;2024-03-06T10:09:12;1.20;99.90
12384;DHT22;6256;63.808;20.336;2024-03-06T10:11:39;1.50;99.90
12384;DHT22;6256;63.808;20.336;2024-03-06T10:14:05;1.70;99.90
12384;DHT22;6256;63.808;20.336;2024-03-06T10:16:31;1.90;99.90
12384;DHT22;6256;63.808;20.336;2024-03-06T10:18:57;2.10;99.90
12384;DHT22;6256;63.808;20.336;2024-03-06T10:21:32;2.30;99.90
12384;DHT22;6256;63.808;20.336;2024-03-06T10:23:58;2.20;99.90
12384;DHT22;6256;63.808;20.336;2024-03-06T10:26:25;1.70;99.90
12384;DHT22;6256;63.808;20.336;2024-03-06T10:28:50;1.90;99.90
12384;DHT22;6256;63.808;20.336;2024-03-06T10:31:27;2.10;99.90
12384;DHT22;6256;63.808;20.336;2024-03-06T10:33:53;2.20;99.90
12384;DHT22;6256;63.808;20.336;2024-03-06T10:36:19;2.10;99.90
12384;DHT22;6256;63.808;20.336;2024-03-06T10:38:46;2.00;99.90
12384;DHT22;6256;63.808;20.336;2024-03-06T10:41:14;2.20;99.90
12384;DHT22;6256;63.808;20.336;2024-03-06T10:43:42;2.10;99.90
12384;DHT22;6256;63.808;20.336;2024-03-06T10:46:11;2.10;99.90
12384;DHT22;6256;63.808;20.336;2024-03-06T10:48:38;2.10;99.90
12384;DHT22;6256;63.808;20.336;2024-03-06T10:51:06;2.20;99.90
12384;DHT22;6256;63.808;20.336;2024-03-06T10:53:34;2.40;99.90
12384;DHT22;6256;63.808;20.336;2024-03-06T10:56:02;2.50;99.90
12384;DHT22;6256;63.808;20.336;2024-03-06T10:58:29;2.70;99.90
12384;DHT22;6256;63.808;20.336;2024-03-06T11:00:56;2.70;99.90
12384;DHT22;6256;63.808;20.336;2024-03-06T11:03:23;2.30;99.90
12384;DHT22;6256;63.808;20.336;2024-03-06T11:05:51;2.20;99.90
12384;DHT22;6256;63.808;20.336;2024-03-06T11:08:20;2.30;99.90
12384;DHT22;6256;63.808;20.336;2024-03-06T11:10:46;2.60;99.90
12384;DHT22;6256;63.808;20.336;2024-03-06T11:13:24;2.70;99.90
12384;DHT22;6256;63.808;20.336;2024-03-06T11:15:52;2.50;99.90
12384;DHT22;6256;63.808;20.336;2024-03-06T11:24:17;2.60;99.90
12384;DHT22;6256;63.808;20.336;2024-03-06T11:26:55;2.20;99.90
12384;DHT22;6256;63.808;20.336;2024-03-06T11:29:27;2.80;99.90
12384;DHT22;6256;63.808;20.336;2024-03-06T11:32:07;3.60;99.90
12384;DHT22;6256;63.808;20.336;2024-03-06T11:34:37;3.80;99.90
12384;DHT22;6256;63.808;20.336;2024-03-06T11:37:07;3.90;99.90
12384;DHT22;6256;63.808;20.336;2024-03-06T11:39:39;3.70;99.90
12384;DHT22;6256;63.808;20.336;2024-03-06T11:42:06;3.90;99.90
12384;DHT22;6256;63.808;20.336;2024-03-06T11:44:35;4.20;99.90
12384;DHT22;6256;63.808;20.336;2024-03-06T11:47:03;4.60;99.90
12384;DHT22;6256;63.808;20.336;2024-03-06T11:49:31;5.00;99.90
12384;DHT22;6256;63.808;20.336;2024-03-06T11:52:03;5.50;99.90
12384;DHT22;6256;63.808;20.336;2024-03-06T11:54:31;5.50;99.90
12384;DHT22;6256;63.808;20.336;2024-03-06T11:57:00;5.50;99.90
12384;DHT22;6256;63.808;20.336;2024-03-06T11:59:36;5.80;99.90
12384;DHT22;6256;63.808;20.336;2024-03-06T12:02:05;6.30;99.90
12384;DHT22;6256;63.808;20.336;2024-03-06T12:04:32;6.60;99.90
12384;DHT22;6256;63.808;20.336;2024-03-06T12:06:59;7.10;99.90
12384;DHT22;6256;63.808;20.336;2024-03-06T12:09:26;7.00;99.90
12384;DHT22;6256;63.808;20.336;2024-03-06T12:11:52;7.10;99.90
12384;DHT22;6256;63.808;20.336;2024-03-06T12:14:19;7.50;99.90
12384;DHT22;6256;63.808;20.336;2024-03-06T12:16:59;7.70;99.90
12384;DHT22;6256;63.808;20.336;2024-03-06T12:19:43;7.70;99.90
12384;DHT22;6256;63.808;20.336;2024-03-06T12:22:12;7.60;99.90
12384;DHT22;6256;63.808;20.336;2024-03-06T12:24:38;7.60;99.90
12384;DHT22;6256;63.808;20.336;2024-03-06T12:27:06;7.30;99.90
12384;DHT22;6256;63.808;20.336;2024-03-06T12:29:34;6.80;99.90
12384;DHT22;6256;63.808;20.336;2024-03-06T12:32:00;6.30;99.90
12384;DHT22;6256;63.808;20.336;2024-03-06T12:34:27;5.70;99.90
12384;DHT22;6256;63.808;20.336;2024-03-06T12:36:56;5.20;99.90
12384;DHT22;6256;63.808;20.336;2024-03-06T12:39:23;5.00;99.90
12384;DHT22;6256;63.808;20.336;2024-03-06T12:41:52;4.90;99.90
12384;DHT22;6256;63.808;20.336;2024-03-06T12:44:21;4.90;99.90
12384;DHT22;6256;63.808;20.336;2024-03-06T12:46:47;4.70;99.90
12384;DHT22;6256;63.808;20.336;2024-03-06T12:49:14;4.70;99.90
12384;DHT22;6256;63.808;20.336;2024-03-06T12:51:40;4.70;99.90
12384;DHT22;6256;63.808;20.336;2024-03-06T12:54:06;4.70;99.90
12384;DHT22;6256;63.808;20.336;2024-03-06T12:56:32;4.70;99.90
12384;DHT22;6256;63.808;20.336;2024-03-06T12:58:58;4.70;99.90
12384;DHT22;6256;63.808;20.336;2024-03-06T13:01:24;4.50;99.90
12384;DHT22;6256;63.808;20.336;2024-03-06T13:03:49;4.60;99.90
12384;DHT22;6256;63.808;20.336;2024-03-06T13:06:15;4.40;99.90
12384;DHT22;6256;63.808;20.336;2024-03-06T13:08:41;4.00;99.90
12384;DHT22;6256;63.808;20.336;2024-03-06T13:11:06;4.10;99.90
12384;DHT22;6256;63.808;20.336;2024-03-06T13:13:32;4.20;99.90
12384;DHT22;6256;63.808;20.336;2024-03-06T13:16:00;4.20;99.90
12384;DHT22;6256;63.808;20.336;2024-03-06T13:18:25;4.20;99.90
12384;DHT22;6256;63.808;20.336;2024-03-06T13:20:51;4.30;99.90
12384;DHT22;6256;63.808;20.336;2024-03-06T13:23:17;4.20;99.90
12384;DHT22;6256;63.808;20.336;2024-03-06T13:25:43;4.10;99.90
12384;DHT22;6256;63.808;20.336;2024-03-06T13:28:11;4.00;99.90
12384;DHT22;6256;63.808;20.336;2024-03-06T13:30:37;3.80;99.90
12384;DHT22;6256;63.808;20.336;2024-03-06T13:33:04;3.70;99.90
12384;DHT22;6256;63.808;20.336;2024-03-06T13:35:30;3.60;99.90
12384;DHT22;6256;63.808;20.336;2024-03-06T13:37:56;3.50;99.90
12384;DHT22;6256;63.808;20.336;2024-03-06T13:40:22;3.50;99.90
12384;DHT22;6256;63.808;20.336;2024-03-06T13:42:48;3.50;99.90
12384;DHT22;6256;63.808;20.336;2024-03-06T13:45:14;3.40;99.90
12384;DHT22;6256;63.808;20.336;2024-03-06T13:47:43;3.30;99.90
12384;DHT22;6256;63.808;20.336;2024-03-06T13:50:11;3.20;99.90
12384;DHT22;6256;63.808;20.336;2024-03-06T13:52:37;3.20;99.90
12384;DHT22;6256;63.808;20.336;2024-03-06T13:55:03;3.10;99.90
12384;DHT22;6256;63.808;20.336;2024-03-06T13:57:33;3.00;99.90
12384;DHT22;6256;63.808;20.336;2024-03-06T14:00:03;3.00;99.90
12384;DHT22;6256;63.808;20.336;2024-03-06T14:02:33;2.90;99.90
12384;DHT22;6256;63.808;20.336;2024-03-06T14:04:58;2.90;99.90
12384;DHT22;6256;63.808;20.336;2024-03-06T14:07:25;2.90;99.90
12384;DHT22;6256;63.808;20.336;2024-03-06T14:09:51;2.80;99.90
12384;DHT22;6256;63.808;20.336;2024-03-06T14:12:17;2.60;99.90
12384;DHT22;6256;63.808;20.336;2024-03-06T14:14:43;2.50;99.90
12384;DHT22;6256;63.808;20.336;2024-03-06T14:17:11;2.40;99.90
12384;DHT22;6256;63.808;20.336;2024-03-06T14:19:36;2.30;99.90
12384;DHT22;6256;63.808;20.336;2024-03-06T14:22:02;2.20;99.90
12384;DHT22;6256;63.808;20.336;2024-03-06T14:24:28;2.10;99.90
12384;DHT22;6256;63.808;20.336;2024-03-06T14:26:53;2.00;99.90
12384;DHT22;6256;63.808;20.336;2024-03-06T14:29:19;1.90;99.90
12384;DHT22;6256;63.808;20.336;2024-03-06T14:31:45;1.80;99.90
12384;DHT22;6256;63.808;20.336;2024-03-06T14:34:10;1.70;99.90
12384;DHT22;6256;63.808;20.336;2024-03-06T14:36:36;1.70;99.90
12384;DHT22;6256;63.808;20.336;2024-03-06T14:39:02;1.60;99.90
12384;DHT22;6256;63.808;20.336;2024-03-06T14:41:28;1.60;99.90
12384;DHT22;6256;63.808;20.336;2024-03-06T14:43:54;1.60;99.90
12384;DHT22;6256;63.808;20.336;2024-03-06T14:46:20;1.50;99.90
12384;DHT22;6256;63.808;20.336;2024-03-06T14:48:45;1.50;99.90
12384;DHT22;6256;63.808;20.336;2024-03-06T14:51:12;1.40;99.90
12384;DHT22;6256;63.808;20.336;2024-03-06T14:53:39;1.30;99.90
12384;DHT22;6256;63.808;20.336;2024-03-06T14:56:05;1.40;99.90
12384;DHT22;6256;63.808;20.336;2024-03-06T14:58:30;1.30;99.90
12384;DHT22;6256;63.808;20.336;2024-03-06T15:00:56;1.30;99.90
12384;DHT22;6256;63.808;20.336;2024-03-06T15:03:23;1.20;99.90
12384;DHT22;6256;63.808;20.336;2024-03-06T15:05:49;1.10;99.90
12384;DHT22;6256;63.808;20.336;2024-03-06T15:08:15;1.00;99.90
12384;DHT22;6256;63.808;20.336;2024-03-06T15:10:41;1.00;99.90
12384;DHT22;6256;63.808;20.336;2024-03-06T15:13:07;0.90;99.90
12384;DHT22;6256;63.808;20.336;2024-03-06T15:15:35;0.80;99.90
12384;DHT22;6256;63.808;20.336;2024-03-06T15:18:01;0.70;99.90
12384;DHT22;6256;63.808;20.336;2024-03-06T15:20:26;0.60;99.90
12384;DHT22;6256;63.808;20.336;2024-03-06T15:22:53;0.50;99.90
12384;DHT22;6256;63.808;20.336;2024-03-06T15:25:19;0.50;99.90
12384;DHT22;6256;63.808;20.336;2024-03-06T15:27:45;0.40;99.90
12384;DHT22;6256;63.808;20.336;2024-03-06T15:30:12;0.30;99.90
12384;DHT22;6256;63.808;20.336;2024-03-06T15:35:06;0.20;99.90
12384;DHT22;6256;63.808;20.336;2024-03-06T15:37:33;0.10;99.90
12384;DHT22;6256;63.808;20.336;2024-03-06T15:39:59;0.10;99.90
12384;DHT22;6256;63.808;20.336;2024-03-06T15:42:25;0.10;99.90
12384;DHT22;6256;63.808;20.336;2024-03-06T15:44:51;0.00;99.90
12384;DHT22;6256;63.808;20.336;2024-03-06T15:47:18;0.00;99.90
12384;DHT22;6256;63.808;20.336;2024-03-06T15:49:44;0.00;99.90
12384;DHT22;6256;63.808;20.336;2024-03-06T15:52:10;-0.10;99.90